sensor_id;sensor_type;location;lat;lon;timestamp;pressure;altitude;pressure_sealevel;temperature;humidity
13209;BME280;6669;42.678;23.332;2022-09-29T00:00:56;93574.25;;;15.74;100.00
13209;BME280;6669;42.678;23.332;2022-09-29T00:03:24;93563.09;;;15.90;100.00
13209;BME280;6669;42.678;23.332;2022-09-29T00:05:53;93555.44;;;16.00;100.00
13209;BME280;6669;42.678;23.332;2022-09-29T00:08:24;93560.19;;;16.04;100.00
13209;BME280;6669;42.678;23.332;2022-09-29T00:10:52;93565.94;;;15.65;100.00
13209;BME280;6669;42.678;23.332;2022-09-29T00:13:21;93562.50;;;15.52;100.00
13209;BME280;6669;42.678;23.332;2022-09-29T00:15:58;93561.72;;;15.64;100.00
13209;BME280;6669;42.678;23.332;2022-09-29T00:18:28;93554.97;;;15.80;100.00
13209;BME280;6669;42.678;23.332;2022-09-29T00:21:01;93559.34;;;15.86;100.00
13209;BME280;6669;42.678;23.332;2022-09-29T00:23:30;93558.53;;;15.85;100.00
13209;BME280;6669;42.678;23.332;2022-09-29T00:26:02;93559.44;;;15.91;100.00
13209;BME280;6669;42.678;23.332;2022-09-29T00:28:31;93575.03;;;15.74;100.00
13209;BME280;6669;42.678;23.332;2022-09-29T00:31:02;93567.50;;;15.78;100.00
13209;BME280;6669;42.678;23.332;2022-09-29T00:33:31;93556.69;;;15.74;100.00
13209;BME280;6669;42.678;23.332;2022-09-29T00:36:02;93545.53;;;15.79;100.00
13209;BME280;6669;42.678;23.332;2022-09-29T00:38:30;93544.84;;;15.72;100.00
13209;BME280;6669;42.678;23.332;2022-09-29T00:40:59;93542.59;;;15.63;100.00
13209;BME280;6669;42.678;23.332;2022-09-29T00:43:46;93543.50;;;15.33;100.00
13209;BME280;6669;42.678;23.332;2022-09-29T00:46:18;93546.59;;;15.30;100.00
13209;BME280;6669;42.678;23.332;2022-09-29T00:48:47;93534.97;;;15.26;100.00
13209;BME280;6669;42.678;23.332;2022-09-29T00:51:17;93541.47;;;15.24;100.00
13209;BME280;6669;42.678;23.332;2022-09-29T00:53:47;93527.34;;;15.13;100.00
13209;BME280;6669;42.678;23.332;2022-09-29T00:56:16;93539.09;;;15.34;100.00
13209;BME280;6669;42.678;23.332;2022-09-29T00:58:48;93536.91;;;15.43;100.00
13209;BME280;6669;42.678;23.332;2022-09-29T01:01:22;93546.34;;;15.20;100.00
13209;BME280;6669;42.678;23.332;2022-09-29T01:03:55;93545.78;;;15.18;100.00
13209;BME280;6669;42.678;23.332;2022-09-29T01:06:26;93533.50;;;15.30;100.00
13209;BME280;6669;42.678;23.332;2022-09-29T01:08:59;93530.31;;;15.28;100.00
13209;BME280;6669;42.678;23.332;2022-09-29T01:11:29;93544.63;;;15.02;100.00
13209;BME280;6669;42.678;23.332;2022-09-29T01:13:59;93533.13;;;15.03;100.00
13209;BME280;6669;42.678;23.332;2022-09-29T01:16:33;93549.16;;;14.83;100.00
13209;BME280;6669;42.678;23.332;2022-09-29T01:19:06;93536.41;;;14.86;100.00
13209;BME280;6669;42.678;23.332;2022-09-29T01:21:40;93531.22;;;14.98;100.00
13209;BME280;6669;42.678;23.332;2022-09-29T01:24:32;93535.72;;;14.67;100.00
13209;BME280;6669;42.678;23.332;2022-09-29T01:27:21;93537.22;;;14.87;100.00
13209;BME280;6669;42.678;23.332;2022-09-29T01:30:13;93530.75;;;15.01;100.00
13209;BME280;6669;42.678;23.332;2022-09-29T01:33:16;93537.00;;;15.00;100.00
13209;BME280;6669;42.678;23.332;2022-09-29T01:35:55;93539.63;;;15.12;100.00
13209;BME280;6669;42.678;23.332;2022-09-29T01:38:42;93539.41;;;15.14;100.00
13209;BME280;6669;42.678;23.332;2022-09-29T01:41:19;93532.81;;;14.99;100.00
13209;BME280;6669;42.678;23.332;2022-09-29T01:43:54;93544.00;;;14.64;100.00
13209;BME280;6669;42.678;23.332;2022-09-29T01:46:27;93551.19;;;14.20;100.00
13209;BME280;6669;42.678;23.332;2022-09-29T01:49:00;93536.63;;;14.43;100.00
13209;BME280;6669;42.678;23.332;2022-09-29T01:51:37;93537.88;;;14.52;100.00
13209;BME280;6669;42.678;23.332;2022-09-29T01:54:11;93554.75;;;14.56;100.00
13209;BME280;6669;42.678;23.332;2022-09-29T01:56:44;93553.38;;;14.53;100.00
13209;BME280;6669;42.678;23.332;2022-09-29T01:59:17;93542.00;;;14.60;100.00
13209;BME280;6669;42.678;23.332;2022-09-29T02:01:50;93544.97;;;14.63;100.00
13209;BME280;6669;42.678;23.332;2022-09-29T02:04:31;93537.34;;;14.62;100.00
13209;BME280;6669;42.678;23.332;2022-09-29T02:07:01;93535.28;;;14.52;100.00
13209;BME280;6669;42.678;23.332;2022-09-29T02:09:35;93540.97;;;14.49;100.00
13209;BME280;6669;42.678;23.332;2022-09-29T02:12:06;93544.56;;;14.36;100.00
13209;BME280;6669;42.678;23.332;2022-09-29T02:14:37;93539.09;;;14.37;100.00
13209;BME280;6669;42.678;23.332;2022-09-29T02:17:11;93544.56;;;14.36;100.00
13209;BME280;6669;42.678;23.332;2022-09-29T02:19:47;93538.69;;;14.22;100.00
13209;BME280;6669;42.678;23.332;2022-09-29T02:22:17;93543.47;;;14.25;100.00
13209;BME280;6669;42.678;23.332;2022-09-29T02:24:47;93541.69;;;14.26;100.00
13209;BME280;6669;42.678;23.332;2022-09-29T02:27:16;93543.59;;;14.30;100.00
13209;BME280;6669;42.678;23.332;2022-09-29T02:29:44;93541.44;;;14.27;100.00
13209;BME280;6669;42.678;23.332;2022-09-29T02:32:12;93534.41;;;14.28;100.00
13209;BME280;6669;42.678;23.332;2022-09-29T02:34:43;93546.53;;;14.22;100.00
13209;BME280;6669;42.678;23.332;2022-09-29T02:37:24;93545.03;;;14.14;100.00
13209;BME280;6669;42.678;23.332;2022-09-29T02:40:09;93552.31;;;14.24;100.00
13209;BME280;6669;42.678;23.332;2022-09-29T02:42:51;93547.81;;;14.31;100.00
13209;BME280;6669;42.678;23.332;2022-09-29T02:45:30;93558.28;;;14.31;100.00
13209;BME280;6669;42.678;23.332;2022-09-29T02:48:10;93549.56;;;14.19;100.00
13209;BME280;6669;42.678;23.332;2022-09-29T02:50:49;93537.09;;;14.21;100.00
13209;BME280;6669;42.678;23.332;2022-09-29T02:53:36;93536.97;;;14.16;100.00
13209;BME280;6669;42.678;23.332;2022-09-29T02:56:13;93549.06;;;13.80;100.00
13209;BME280;6669;42.678;23.332;2022-09-29T02:58:50;93544.13;;;13.90;100.00
13209;BME280;6669;42.678;23.332;2022-09-29T03:01:20;93530.59;;;13.93;100.00
13209;BME280;6669;42.678;23.332;2022-09-29T03:03:48;93527.13;;;13.99;100.00
13209;BME280;6669;42.678;23.332;2022-09-29T03:06:17;93505.63;;;13.97;100.00
13209;BME280;6669;42.678;23.332;2022-09-29T03:08:48;93476.00;;;13.73;100.00
13209;BME280;6669;42.678;23.332;2022-09-29T03:11:16;93477.81;;;13.72;100.00
13209;BME280;6669;42.678;23.332;2022-09-29T03:13:44;93486.28;;;13.68;100.00
13209;BME280;6669;42.678;23.332;2022-09-29T03:16:11;93511.03;;;13.65;100.00
13209;BME280;6669;42.678;23.332;2022-09-29T03:18:39;93497.19;;;13.65;100.00
13209;BME280;6669;42.678;23.332;2022-09-29T03:21:08;93506.47;;;13.79;100.00
13209;BME280;6669;42.678;23.332;2022-09-29T03:23:36;93503.78;;;13.67;100.00
13209;BME280;6669;42.678;23.332;2022-09-29T03:26:05;93511.31;;;13.76;100.00
13209;BME280;6669;42.678;23.332;2022-09-29T03:28:33;93536.97;;;13.97;100.00
13209;BME280;6669;42.678;23.332;2022-09-29T03:31:04;93545.41;;;13.99;100.00
13209;BME280;6669;42.678;23.332;2022-09-29T03:33:33;93548.16;;;14.04;100.00
13209;BME280;6669;42.678;23.332;2022-09-29T03:36:02;93548.63;;;14.01;100.00
13209;BME280;6669;42.678;23.332;2022-09-29T03:38:31;93553.59;;;13.84;100.00
13209;BME280;6669;42.678;23.332;2022-09-29T03:40:59;93547.66;;;13.96;100.00
13209;BME280;6669;42.678;23.332;2022-09-29T03:43:29;93567.09;;;14.00;100.00
13209;BME280;6669;42.678;23.332;2022-09-29T03:45:57;93574.50;;;13.84;100.00
13209;BME280;6669;42.678;23.332;2022-09-29T03:48:25;93577.19;;;13.78;100.00
13209;BME280;6669;42.678;23.332;2022-09-29T03:50:56;93560.59;;;13.72;100.00
13209;BME280;6669;42.678;23.332;2022-09-29T03:53:27;93559.28;;;13.81;100.00
13209;BME280;6669;42.678;23.332;2022-09-29T03:55:55;93551.81;;;13.85;100.00
13209;BME280;6669;42.678;23.332;2022-09-29T03:58:23;93552.38;;;13.87;100.00
13209;BME280;6669;42.678;23.332;2022-09-29T04:00:53;93540.56;;;13.84;100.00
13209;BME280;6669;42.678;23.332;2022-09-29T04:03:21;93543.91;;;13.92;100.00
13209;BME280;6669;42.678;23.332;2022-09-29T04:05:49;93557.38;;;13.88;100.00
13209;BME280;6669;42.678;23.332;2022-09-29T04:08:17;93542.38;;;13.84;100.00
13209;BME280;6669;42.678;23.332;2022-09-29T04:10:46;93551.66;;;13.80;100.00
13209;BME280;6669;42.678;23.332;2022-09-29T04:13:14;93566.72;;;13.59;100.00
13209;BME280;6669;42.678;23.332;2022-09-29T04:15:45;93539.91;;;13.52;100.00
13209;BME280;6669;42.678;23.332;2022-09-29T04:18:15;93536.13;;;13.48;100.00
13209;BME280;6669;42.678;23.332;2022-09-29T04:20:43;93554.59;;;13.21;100.00
13209;BME280;6669;42.678;23.332;2022-09-29T04:23:11;93545.59;;;12.98;100.00
13209;BME280;6669;42.678;23.332;2022-09-29T04:25:39;93532.56;;;13.17;100.00
13209;BME280;6669;42.678;23.332;2022-09-29T04:28:07;93539.00;;;13.14;100.00
13209;BME280;6669;42.678;23.332;2022-09-29T04:30:35;93535.25;;;13.10;100.00
13209;BME280;6669;42.678;23.332;2022-09-29T04:33:03;93524.47;;;13.25;100.00
13209;BME280;6669;42.678;23.332;2022-09-29T04:35:32;93533.31;;;13.24;100.00
13209;BME280;6669;42.678;23.332;2022-09-29T04:38:03;93539.47;;;13.30;100.00
13209;BME280;6669;42.678;23.332;2022-09-29T04:40:31;93530.03;;;13.29;100.00
13209;BME280;6669;42.678;23.332;2022-09-29T04:42:59;93536.06;;;13.29;100.00
13209;BME280;6669;42.678;23.332;2022-09-29T04:45:28;93536.47;;;13.07;100.00
13209;BME280;6669;42.678;23.332;2022-09-29T04:47:56;93540.56;;;13.22;100.00
13209;BME280;6669;42.678;23.332;2022-09-29T04:50:24;93521.56;;;13.33;100.00
13209;BME280;6669;42.678;23.332;2022-09-29T04:52:53;93524.41;;;13.32;100.00
13209;BME280;6669;42.678;23.332;2022-09-29T04:55:21;93549.72;;;13.31;100.00
13209;BME280;6669;42.678;23.332;2022-09-29T04:57:49;93535.09;;;13.23;100.00
13209;BME280;6669;42.678;23.332;2022-09-29T05:00:17;93536.63;;;13.38;100.00
13209;BME280;6669;42.678;23.332;2022-09-29T05:02:47;93544.31;;;13.51;100.00
13209;BME280;6669;42.678;23.332;2022-09-29T05:05:16;93541.66;;;13.58;100.00
13209;BME280;6669;42.678;23.332;2022-09-29T05:07:44;93514.97;;;13.56;100.00
13209;BME280;6669;42.678;23.332;2022-09-29T05:10:13;93518.72;;;13.60;100.00
13209;BME280;6669;42.678;23.332;2022-09-29T05:12:46;93541.94;;;13.68;100.00
13209;BME280;6669;42.678;23.332;2022-09-29T05:15:15;93542.78;;;13.81;100.00
13209;BME280;6669;42.678;23.332;2022-09-29T05:17:47;93546.00;;;13.83;100.00
13209;BME280;6669;42.678;23.332;2022-09-29T05:20:15;93539.72;;;13.72;100.00
13209;BME280;6669;42.678;23.332;2022-09-29T05:22:43;93547.75;;;13.89;100.00
13209;BME280;6669;42.678;23.332;2022-09-29T05:25:13;93554.41;;;14.03;100.00
13209;BME280;6669;42.678;23.332;2022-09-29T05:27:41;93553.03;;;14.01;100.00
13209;BME280;6669;42.678;23.332;2022-09-29T05:30:09;93564.16;;;13.96;100.00
13209;BME280;6669;42.678;23.332;2022-09-29T05:32:37;93576.16;;;14.16;100.00
13209;BME280;6669;42.678;23.332;2022-09-29T05:35:06;93538.22;;;14.13;100.00
13209;BME280;6669;42.678;23.332;2022-09-29T05:37:34;93548.69;;;14.25;100.00
13209;BME280;6669;42.678;23.332;2022-09-29T05:40:03;93580.81;;;14.14;100.00
13209;BME280;6669;42.678;23.332;2022-09-29T05:42:32;93566.44;;;14.23;100.00
13209;BME280;6669;42.678;23.332;2022-09-29T05:45:00;93569.56;;;14.32;100.00
13209;BME280;6669;42.678;23.332;2022-09-29T05:47:28;93585.28;;;14.25;100.00
13209;BME280;6669;42.678;23.332;2022-09-29T05:49:56;93581.97;;;14.18;100.00
13209;BME280;6669;42.678;23.332;2022-09-29T05:52:24;93603.56;;;14.44;100.00
13209;BME280;6669;42.678;23.332;2022-09-29T05:54:52;93567.25;;;14.54;100.00
13209;BME280;6669;42.678;23.332;2022-09-29T05:57:20;93584.06;;;14.58;100.00
13209;BME280;6669;42.678;23.332;2022-09-29T05:59:50;93595.91;;;14.61;100.00
13209;BME280;6669;42.678;23.332;2022-09-29T06:02:17;93589.41;;;14.82;100.00
13209;BME280;6669;42.678;23.332;2022-09-29T06:04:46;93601.28;;;14.96;100.00
13209;BME280;6669;42.678;23.332;2022-09-29T06:07:14;93617.09;;;15.01;100.00
13209;BME280;6669;42.678;23.332;2022-09-29T06:09:42;93626.81;;;15.13;100.00
13209;BME280;6669;42.678;23.332;2022-09-29T06:12:09;93611.91;;;15.25;100.00
13209;BME280;6669;42.678;23.332;2022-09-29T06:14:37;93630.25;;;15.37;100.00
13209;BME280;6669;42.678;23.332;2022-09-29T06:17:07;93637.75;;;15.22;100.00
13209;BME280;6669;42.678;23.332;2022-09-29T06:19:35;93639.03;;;15.43;100.00
13209;BME280;6669;42.678;23.332;2022-09-29T06:22:08;93628.22;;;15.63;100.00
13209;BME280;6669;42.678;23.332;2022-09-29T06:24:36;93628.69;;;15.72;100.00
13209;BME280;6669;42.678;23.332;2022-09-29T06:27:04;93614.81;;;15.83;100.00
13209;BME280;6669;42.678;23.332;2022-09-29T06:29:32;93615.38;;;15.85;100.00
13209;BME280;6669;42.678;23.332;2022-09-29T06:32:00;93639.06;;;16.02;100.00
13209;BME280;6669;42.678;23.332;2022-09-29T06:34:30;93630.50;;;16.07;100.00
13209;BME280;6669;42.678;23.332;2022-09-29T06:36:58;93615.13;;;16.10;100.00
13209;BME280;6669;42.678;23.332;2022-09-29T06:39:43;93641.56;;;16.21;100.00
13209;BME280;6669;42.678;23.332;2022-09-29T06:42:11;93629.81;;;16.23;100.00
13209;BME280;6669;42.678;23.332;2022-09-29T06:44:40;93666.00;;;16.50;100.00
13209;BME280;6669;42.678;23.332;2022-09-29T06:47:08;93635.75;;;16.59;100.00
13209;BME280;6669;42.678;23.332;2022-09-29T06:49:37;93658.53;;;16.71;100.00
13209;BME280;6669;42.678;23.332;2022-09-29T06:52:05;93663.88;;;16.76;100.00
13209;BME280;6669;42.678;23.332;2022-09-29T06:54:45;93659.84;;;16.85;100.00
13209;BME280;6669;42.678;23.332;2022-09-29T06:57:13;93664.63;;;16.88;100.00
13209;BME280;6669;42.678;23.332;2022-09-29T06:59:41;93672.47;;;17.00;100.00
13209;BME280;6669;42.678;23.332;2022-09-29T07:02:10;93687.47;;;16.88;100.00
13209;BME280;6669;42.678;23.332;2022-09-29T07:04:39;93697.25;;;17.04;100.00
13209;BME280;6669;42.678;23.332;2022-09-29T07:07:07;93690.09;;;17.16;100.00
13209;BME280;6669;42.678;23.332;2022-09-29T07:09:35;93686.28;;;17.24;100.00
13209;BME280;6669;42.678;23.332;2022-09-29T07:12:03;93692.84;;;17.39;100.00
13209;BME280;6669;42.678;23.332;2022-09-29T07:14:32;93691.34;;;17.43;100.00
13209;BME280;6669;42.678;23.332;2022-09-29T07:17:00;93685.59;;;17.46;100.00
13209;BME280;6669;42.678;23.332;2022-09-29T07:19:28;93699.72;;;17.57;100.00
13209;BME280;6669;42.678;23.332;2022-09-29T07:21:57;93700.19;;;17.71;100.00
13209;BME280;6669;42.678;23.332;2022-09-29T07:24:25;93666.09;;;17.59;100.00
13209;BME280;6669;42.678;23.332;2022-09-29T07:26:53;93690.69;;;17.87;100.00
13209;BME280;6669;42.678;23.332;2022-09-29T07:29:21;93693.13;;;17.88;100.00
13209;BME280;6669;42.678;23.332;2022-09-29T07:31:49;93685.41;;;17.99;100.00
13209;BME280;6669;42.678;23.332;2022-09-29T07:34:19;93685.69;;;17.85;100.00
13209;BME280;6669;42.678;23.332;2022-09-29T07:36:47;93690.16;;;18.02;100.00
13209;BME280;6669;42.678;23.332;2022-09-29T07:39:19;93690.63;;;18.16;100.00
13209;BME280;6669;42.678;23.332;2022-09-29T07:41:47;93684.97;;;18.07;100.00
13209;BME280;6669;42.678;23.332;2022-09-29T07:44:16;93689.53;;;18.11;100.00
13209;BME280;6669;42.678;23.332;2022-09-29T07:46:44;93695.06;;;18.32;100.00
13209;BME280;6669;42.678;23.332;2022-09-29T07:49:14;93696.91;;;18.32;100.00
13209;BME280;6669;42.678;23.332;2022-09-29T07:51:42;93703.75;;;18.33;100.00
13209;BME280;6669;42.678;23.332;2022-09-29T07:54:11;93703.03;;;18.37;100.00
13209;BME280;6669;42.678;23.332;2022-09-29T07:56:40;93712.16;;;18.52;100.00
13209;BME280;6669;42.678;23.332;2022-09-29T07:59:09;93723.22;;;18.76;100.00
13209;BME280;6669;42.678;23.332;2022-09-29T08:01:37;93731.28;;;18.86;100.00
13209;BME280;6669;42.678;23.332;2022-09-29T08:04:05;93726.94;;;18.97;100.00
13209;BME280;6669;42.678;23.332;2022-09-29T08:06:33;93731.91;;;19.16;100.00
13209;BME280;6669;42.678;23.332;2022-09-29T08:09:01;93731.09;;;19.15;100.00
13209;BME280;6669;42.678;23.332;2022-09-29T08:11:32;93740.84;;;19.15;100.00
13209;BME280;6669;42.678;23.332;2022-09-29T08:14:02;93745.25;;;19.09;100.00
13209;BME280;6669;42.678;23.332;2022-09-29T08:16:30;93754.22;;;19.08;100.00
13209;BME280;6669;42.678;23.332;2022-09-29T08:18:58;93756.41;;;19.16;100.00
13209;BME280;6669;42.678;23.332;2022-09-29T08:21:27;93760.84;;;19.38;100.00
13209;BME280;6669;42.678;23.332;2022-09-29T08:23:55;93760.94;;;19.48;100.00
13209;BME280;6669;42.678;23.332;2022-09-29T08:26:23;93759.16;;;19.54;100.00
13209;BME280;6669;42.678;23.332;2022-09-29T08:29:08;93760.56;;;19.62;100.00
13209;BME280;6669;42.678;23.332;2022-09-29T08:31:41;93760.03;;;19.65;100.00
13209;BME280;6669;42.678;23.332;2022-09-29T08:34:10;93779.56;;;19.91;100.00
13209;BME280;6669;42.678;23.332;2022-09-29T08:36:39;93782.09;;;20.13;100.00
13209;BME280;6669;42.678;23.332;2022-09-29T08:39:09;93769.50;;;20.20;100.00
13209;BME280;6669;42.678;23.332;2022-09-29T08:41:48;93798.78;;;20.19;100.00
13209;BME280;6669;42.678;23.332;2022-09-29T08:44:27;93802.75;;;20.21;100.00
13209;BME280;6669;42.678;23.332;2022-09-29T08:47:13;93799.44;;;20.36;100.00
13209;BME280;6669;42.678;23.332;2022-09-29T08:49:45;93791.81;;;20.40;100.00
13209;BME280;6669;42.678;23.332;2022-09-29T08:52:16;93783.94;;;20.50;100.00
13209;BME280;6669;42.678;23.332;2022-09-29T08:54:46;93785.53;;;20.51;100.00
13209;BME280;6669;42.678;23.332;2022-09-29T08:57:18;93808.31;;;20.63;100.00
13209;BME280;6669;42.678;23.332;2022-09-29T08:59:52;93798.09;;;20.71;100.00
13209;BME280;6669;42.678;23.332;2022-09-29T09:02:52;93805.19;;;20.66;100.00
13209;BME280;6669;42.678;23.332;2022-09-29T09:09:00;93802.69;;;20.49;100.00
13209;BME280;6669;42.678;23.332;2022-09-29T09:11:40;93799.31;;;20.58;100.00
13209;BME280;6669;42.678;23.332;2022-09-29T09:14:22;93792.19;;;20.59;100.00
13209;BME280;6669;42.678;23.332;2022-09-29T09:17:03;93789.44;;;20.44;100.00
13209;BME280;6669;42.678;23.332;2022-09-29T09:19:56;93797.50;;;20.64;100.00
13209;BME280;6669;42.678;23.332;2022-09-29T09:22:37;93802.69;;;20.86;100.00
13209;BME280;6669;42.678;23.332;2022-09-29T09:25:18;93801.13;;;20.96;100.00
13209;BME280;6669;42.678;23.332;2022-09-29T09:27:54;93801.19;;;21.11;100.00
13209;BME280;6669;42.678;23.332;2022-09-29T09:30:28;93807.31;;;21.17;100.00
13209;BME280;6669;42.678;23.332;2022-09-29T09:33:01;93803.88;;;21.16;100.00
13209;BME280;6669;42.678;23.332;2022-09-29T09:35:37;93800.75;;;21.30;100.00
13209;BME280;6669;42.678;23.332;2022-09-29T09:38:24;93796.53;;;21.29;100.00
13209;BME280;6669;42.678;23.332;2022-09-29T09:40:56;93791.50;;;21.32;100.00
13209;BME280;6669;42.678;23.332;2022-09-29T09:43:28;93790.78;;;21.47;100.00
13209;BME280;6669;42.678;23.332;2022-09-29T09:46:02;93797.19;;;21.72;100.00
13209;BME280;6669;42.678;23.332;2022-09-29T09:48:36;93799.59;;;21.84;100.00
13209;BME280;6669;42.678;23.332;2022-09-29T09:51:20;93794.56;;;21.87;100.00
13209;BME280;6669;42.678;23.332;2022-09-29T09:53:55;93803.34;;;22.14;100.00
13209;BME280;6669;42.678;23.332;2022-09-29T09:56:38;93797.25;;;22.34;100.00
13209;BME280;6669;42.678;23.332;2022-09-29T09:59:19;93799.88;;;22.60;100.00
13209;BME280;6669;42.678;23.332;2022-09-29T10:01:49;93803.97;;;23.28;100.00
13209;BME280;6669;42.678;23.332;2022-09-29T10:04:19;93799.09;;;24.01;100.00
13209;BME280;6669;42.678;23.332;2022-09-29T10:06:49;93811.22;;;25.05;100.00
13209;BME280;6669;42.678;23.332;2022-09-29T10:09:18;93811.59;;;26.04;86.80
13209;BME280;6669;42.678;23.332;2022-09-29T10:11:47;93807.56;;;26.59;74.25
13209;BME280;6669;42.678;23.332;2022-09-29T10:14:21;93800.22;;;26.51;75.67
13209;BME280;6669;42.678;23.332;2022-09-29T10:16:56;93799.91;;;26.19;80.83
13209;BME280;6669;42.678;23.332;2022-09-29T10:19:52;93810.94;;;25.74;84.13
13209;BME280;6669;42.678;23.332;2022-09-29T10:22:22;93797.03;;;25.15;88.28
13209;BME280;6669;42.678;23.332;2022-09-29T10:24:52;93794.25;;;24.77;93.16
13209;BME280;6669;42.678;23.332;2022-09-29T10:27:23;93805.97;;;24.41;89.48
13209;BME280;6669;42.678;23.332;2022-09-29T10:29:56;93795.69;;;24.29;95.14
13209;BME280;6669;42.678;23.332;2022-09-29T10:32:28;93799.84;;;24.06;98.29
13209;BME280;6669;42.678;23.332;2022-09-29T10:35:07;93786.44;;;23.82;97.50
13209;BME280;6669;42.678;23.332;2022-09-29T10:37:46;93796.13;;;23.62;97.70
13209;BME280;6669;42.678;23.332;2022-09-29T10:40:17;93801.63;;;23.16;99.30
13209;BME280;6669;42.678;23.332;2022-09-29T10:42:47;93806.19;;;22.90;94.48
13209;BME280;6669;42.678;23.332;2022-09-29T10:45:18;93797.50;;;22.63;91.62
13209;BME280;6669;42.678;23.332;2022-09-29T10:47:58;93797.47;;;22.84;95.73
13209;BME280;6669;42.678;23.332;2022-09-29T10:50:37;93794.75;;;22.99;93.99
13209;BME280;6669;42.678;23.332;2022-09-29T10:53:21;93789.75;;;22.88;98.52
13209;BME280;6669;42.678;23.332;2022-09-29T10:55:54;93783.44;;;22.83;100.00
13209;BME280;6669;42.678;23.332;2022-09-29T10:58:26;93785.91;;;23.35;92.49
13209;BME280;6669;42.678;23.332;2022-09-29T11:01:18;93786.50;;;24.16;93.85
13209;BME280;6669;42.678;23.332;2022-09-29T11:03:50;93787.22;;;24.86;80.11
13209;BME280;6669;42.678;23.332;2022-09-29T11:06:26;93781.34;;;24.60;79.76
13209;BME280;6669;42.678;23.332;2022-09-29T11:08:57;93783.94;;;24.94;77.93
13209;BME280;6669;42.678;23.332;2022-09-29T11:11:28;93778.28;;;25.50;74.92
13209;BME280;6669;42.678;23.332;2022-09-29T11:13:58;93767.63;;;25.88;68.21
13209;BME280;6669;42.678;23.332;2022-09-29T11:16:29;93776.16;;;26.04;67.82
13209;BME280;6669;42.678;23.332;2022-09-29T11:19:03;93787.34;;;25.87;67.42
13209;BME280;6669;42.678;23.332;2022-09-29T11:21:58;93781.06;;;25.39;68.70
13209;BME280;6669;42.678;23.332;2022-09-29T11:24:45;93772.16;;;24.18;69.84
13209;BME280;6669;42.678;23.332;2022-09-29T11:27:27;93775.66;;;24.08;73.11
13209;BME280;6669;42.678;23.332;2022-09-29T11:30:04;93771.91;;;24.14;76.60
13209;BME280;6669;42.678;23.332;2022-09-29T11:32:53;93760.31;;;23.60;75.25
13209;BME280;6669;42.678;23.332;2022-09-29T11:35:35;93751.31;;;23.56;76.75
13209;BME280;6669;42.678;23.332;2022-09-29T11:38:19;93766.13;;;23.62;74.73
13209;BME280;6669;42.678;23.332;2022-09-29T11:41:11;93754.78;;;23.56;76.09
13209;BME280;6669;42.678;23.332;2022-09-29T11:43:45;93758.78;;;23.54;76.59
13209;BME280;6669;42.678;23.332;2022-09-29T11:46:34;93761.69;;;23.47;79.40
13209;BME280;6669;42.678;23.332;2022-09-29T11:49:30;93777.94;;;23.35;82.39
13209;BME280;6669;42.678;23.332;2022-09-29T11:52:16;93764.00;;;23.19;82.45
13209;BME280;6669;42.678;23.332;2022-09-29T11:55:06;93777.19;;;23.29;75.88
13209;BME280;6669;42.678;23.332;2022-09-29T11:57:47;93761.63;;;23.62;78.16
13209;BME280;6669;42.678;23.332;2022-09-29T12:00:22;93773.50;;;24.15;75.18
13209;BME280;6669;42.678;23.332;2022-09-29T12:03:18;93752.44;;;23.94;74.85
13209;BME280;6669;42.678;23.332;2022-09-29T12:05:59;93768.25;;;24.39;73.04
13209;BME280;6669;42.678;23.332;2022-09-29T12:08:41;93761.16;;;24.88;71.07
13209;BME280;6669;42.678;23.332;2022-09-29T12:11:19;93755.91;;;25.89;68.40
13209;BME280;6669;42.678;23.332;2022-09-29T12:14:15;93767.25;;;25.56;68.17
13209;BME280;6669;42.678;23.332;2022-09-29T12:16:50;93751.72;;;24.47;71.84
13209;BME280;6669;42.678;23.332;2022-09-29T12:19:23;93758.28;;;24.26;73.42
13209;BME280;6669;42.678;23.332;2022-09-29T12:21:57;93749.16;;;24.61;72.44
13209;BME280;6669;42.678;23.332;2022-09-29T12:24:39;93744.50;;;25.26;71.30
13209;BME280;6669;42.678;23.332;2022-09-29T12:27:15;93757.69;;;26.13;65.92
13209;BME280;6669;42.678;23.332;2022-09-29T12:29:48;93762.78;;;26.75;63.69
13209;BME280;6669;42.678;23.332;2022-09-29T12:32:20;93766.44;;;26.93;62.79
13209;BME280;6669;42.678;23.332;2022-09-29T12:34:52;93767.78;;;26.63;62.05
13209;BME280;6669;42.678;23.332;2022-09-29T12:37:26;93759.78;;;26.63;61.07
13209;BME280;6669;42.678;23.332;2022-09-29T12:40:02;93766.75;;;26.91;59.48
13209;BME280;6669;42.678;23.332;2022-09-29T12:42:46;93772.78;;;27.25;59.44
13209;BME280;6669;42.678;23.332;2022-09-29T12:45:22;93780.34;;;25.91;60.28
13209;BME280;6669;42.678;23.332;2022-09-29T12:48:05;93775.69;;;25.83;62.23
13209;BME280;6669;42.678;23.332;2022-09-29T12:50:41;93758.19;;;26.15;65.03
13209;BME280;6669;42.678;23.332;2022-09-29T12:53:14;93759.13;;;26.38;60.97
13209;BME280;6669;42.678;23.332;2022-09-29T12:55:49;93756.22;;;26.01;61.69
13209;BME280;6669;42.678;23.332;2022-09-29T12:58:29;93770.41;;;26.82;61.00
13209;BME280;6669;42.678;23.332;2022-09-29T13:01:03;93764.28;;;27.23;59.61
13209;BME280;6669;42.678;23.332;2022-09-29T13:07:46;93758.84;;;26.86;62.08
13209;BME280;6669;42.678;23.332;2022-09-29T13:10:41;93766.28;;;27.03;60.19
13209;BME280;6669;42.678;23.332;2022-09-29T13:16:20;93765.59;;;25.41;63.54
13209;BME280;6669;42.678;23.332;2022-09-29T13:19:18;93753.78;;;25.04;68.33
13209;BME280;6669;42.678;23.332;2022-09-29T13:22:24;93743.78;;;25.20;65.51
13209;BME280;6669;42.678;23.332;2022-09-29T13:25:00;93766.41;;;25.80;65.94
13209;BME280;6669;42.678;23.332;2022-09-29T13:27:32;93776.06;;;26.28;64.03
13209;BME280;6669;42.678;23.332;2022-09-29T13:30:11;93758.00;;;26.58;61.48
13209;BME280;6669;42.678;23.332;2022-09-29T13:32:44;93775.38;;;26.22;61.65
13209;BME280;6669;42.678;23.332;2022-09-29T13:35:14;93766.41;;;25.42;65.20